createdAt,value
2022-08-01T00:01:32.897Z,17.86
2022-08-01T00:04:01.694Z,17.93
2022-08-01T00:06:29.780Z,18.05
2022-08-01T00:08:57.806Z,17.89
2022-08-01T00:11:25.994Z,18.05
2022-08-01T00:13:54.375Z,17.98
2022-08-01T00:16:24.301Z,18.10
2022-08-01T00:18:52.750Z,18.16
2022-08-01T00:21:24.184Z,18.19
2022-08-01T00:23:52.445Z,18.25
2022-08-01T00:26:21.686Z,18.27
2022-08-01T00:28:49.664Z,18.24
2022-08-01T00:31:17.830Z,18.32
2022-08-01T00:33:46.068Z,18.20
2022-08-01T00:36:14.276Z,18.34
2022-08-01T00:38:42.292Z,18.41
2022-08-01T00:41:12.886Z,18.45
2022-08-01T00:43:40.903Z,18.50
2022-08-01T00:46:08.830Z,18.59
2022-08-01T00:48:37.822Z,18.67
2022-08-01T00:51:07.437Z,18.78
2022-08-01T00:53:51.174Z,18.91
2022-08-01T00:56:28.212Z,19.02
2022-08-01T00:58:57.163Z,19.19
2022-08-01T01:01:25.571Z,19.31
2022-08-01T01:04:09.999Z,19.45
2022-08-01T01:06:54.993Z,19.51
2022-08-01T01:09:46.979Z,19.67
2022-08-01T01:12:26.685Z,19.75
2022-08-01T01:15:06.605Z,19.81
2022-08-01T01:17:51.171Z,19.87
2022-08-01T01:20:26.213Z,19.89
2022-08-01T01:23:18.874Z,19.92
2022-08-01T01:25:53.284Z,19.94
2022-08-01T01:28:43.015Z,19.93
2022-08-01T01:31:15.348Z,19.95
2022-08-01T01:33:47.145Z,19.98
2022-08-01T01:36:18.715Z,20.12
2022-08-01T01:38:50.658Z,20.22
2022-08-01T01:41:20.209Z,20.32
2022-08-01T01:43:50.304Z,20.36
2022-08-01T01:46:26.307Z,20.41
2022-08-01T01:48:58.516Z,20.50
2022-08-01T01:51:29.146Z,20.48
2022-08-01T01:54:00.869Z,20.67
2022-08-01T01:56:31.720Z,20.70
2022-08-01T01:59:02.601Z,20.71
2022-08-01T02:01:58.351Z,20.71
2022-08-01T02:04:25.503Z,20.77
2022-08-01T02:06:54.873Z,20.75
2022-08-01T02:09:25.352Z,20.69
2022-08-01T02:12:09.581Z,20.63
2022-08-01T02:15:01.024Z,20.64
2022-08-01T02:17:30.508Z,20.80
2022-08-01T02:19:59.249Z,20.82
2022-08-01T02:22:39.813Z,20.83
2022-08-01T02:25:19.578Z,20.84
2022-08-01T02:28:04.125Z,20.92
2022-08-01T02:30:38.309Z,20.96
2022-08-01T02:33:22.784Z,21.13
2022-08-01T02:36:29.804Z,21.23
2022-08-01T02:38:49.023Z,21.28
2022-08-01T02:41:22.787Z,21.38
2022-08-01T02:43:59.164Z,21.42
2022-08-01T02:46:46.269Z,21.54
2022-08-01T02:49:17.630Z,21.56
2022-08-01T02:51:49.593Z,21.62
2022-08-01T02:54:20.393Z,21.51
2022-08-01T02:56:52.170Z,21.68
2022-08-01T02:59:22.823Z,21.75
2022-08-01T03:01:53.292Z,21.76
2022-08-01T03:04:26.461Z,21.91
2022-08-01T03:07:00.044Z,21.97
2022-08-01T03:09:31.420Z,21.97
2022-08-01T03:12:04.047Z,22.07
2022-08-01T03:14:38.004Z,22.06
2022-08-01T03:17:12.349Z,21.95
2022-08-01T03:19:41.419Z,21.88
2022-08-01T03:22:13.331Z,21.91
2022-08-01T03:24:43.536Z,21.90
2022-08-01T03:27:13.841Z,21.91
2022-08-01T03:29:43.541Z,21.89
2022-08-01T03:32:16.711Z,21.82
2022-08-01T03:34:44.934Z,21.81
2022-08-01T03:37:26.706Z,21.74
2022-08-01T03:40:04.442Z,21.63
2022-08-01T03:42:39.690Z,21.57
2022-08-01T03:45:14.205Z,21.52
2022-08-01T03:47:47.443Z,21.47
2022-08-01T03:50:18.451Z,21.47
2022-08-01T03:52:49.506Z,21.51
2022-08-01T03:55:22.684Z,21.62
2022-08-01T03:57:52.612Z,21.68
2022-08-01T04:00:20.677Z,21.73
2022-08-01T04:02:51.794Z,21.52
2022-08-01T04:05:20.177Z,21.66
2022-08-01T04:07:59.584Z,21.59
2022-08-01T04:10:45.895Z,21.55
2022-08-01T04:13:14.619Z,21.55
2022-08-01T04:15:43.094Z,21.30
2022-08-01T04:18:11.576Z,21.57
2022-08-01T04:20:41.114Z,21.59
2022-08-01T04:23:36.891Z,21.56
2022-08-01T04:26:07.422Z,21.62
2022-08-01T04:28:39.353Z,21.69
2022-08-01T04:31:14.632Z,21.68
2022-08-01T04:33:47.737Z,21.64
2022-08-01T04:36:17.478Z,21.62
2022-08-01T04:38:50.220Z,21.46
2022-08-01T04:41:19.607Z,21.25
2022-08-01T04:43:48.344Z,21.15
2022-08-01T04:46:17.857Z,21.03
2022-08-01T04:48:47.280Z,20.95
2022-08-01T04:51:17.357Z,20.92
2022-08-01T04:53:48.438Z,20.90
2022-08-01T04:56:16.490Z,20.84
2022-08-01T04:58:45.512Z,20.74
2022-08-01T05:01:14.481Z,20.61
2022-08-01T05:03:42.657Z,20.64
2022-08-01T05:06:10.680Z,20.67
2022-08-01T05:08:39.603Z,20.65
2022-08-01T05:11:07.606Z,20.54
2022-08-01T05:13:36.599Z,20.39
2022-08-01T05:16:05.583Z,20.27
2022-08-01T05:18:35.461Z,20.17
2022-08-01T05:21:03.562Z,20.05
2022-08-01T05:23:43.193Z,20.11
2022-08-01T05:26:14.705Z,20.15
2022-08-01T05:28:45.761Z,20.08
2022-08-01T05:31:13.797Z,20.07
2022-08-01T05:33:41.817Z,20.07
2022-08-01T05:36:10.097Z,20.04
2022-08-01T05:38:38.272Z,20.00
2022-08-01T05:41:06.777Z,20.11
2022-08-01T05:43:35.080Z,20.10
2022-08-01T05:46:03.205Z,20.16
2022-08-01T05:48:32.222Z,20.18
2022-08-01T05:51:00.526Z,20.16
2022-08-01T05:53:28.620Z,19.99
2022-08-01T05:55:56.933Z,19.78
2022-08-01T05:58:25.220Z,19.85
2022-08-01T06:00:53.260Z,19.77
2022-08-01T06:03:40.301Z,19.57
2022-08-01T06:06:08.372Z,19.46
2022-08-01T06:08:37.958Z,19.50
2022-08-01T06:11:06.201Z,19.46
2022-08-01T06:13:34.219Z,19.40
2022-08-01T06:16:14.245Z,19.48
2022-08-01T06:18:45.677Z,19.50
2022-08-01T06:21:13.712Z,19.45
2022-08-01T06:23:43.913Z,19.16
2022-08-01T06:26:14.161Z,19.03
2022-08-01T06:29:12.556Z,19.07
2022-08-01T06:32:00.981Z,19.04
2022-08-01T06:34:29.188Z,18.88
2022-08-01T06:36:57.202Z,18.98
2022-08-01T06:39:25.415Z,19.08
2022-08-01T06:41:53.463Z,19.17
2022-08-01T06:44:21.489Z,19.24
2022-08-01T06:46:49.633Z,19.24
2022-08-01T06:49:17.675Z,19.29
2022-08-01T06:51:45.831Z,19.32
2022-08-01T06:54:14.225Z,19.40
2022-08-01T06:56:42.337Z,19.21
2022-08-01T06:59:10.773Z,19.01
2022-08-01T07:01:40.125Z,18.49
2022-08-01T07:04:08.855Z,18.64
2022-08-01T07:06:36.787Z,18.63
2022-08-01T07:09:10.819Z,18.56
2022-08-01T07:11:41.745Z,18.57
2022-08-01T07:14:09.962Z,18.51
2022-08-01T07:16:40.095Z,18.34
2022-08-01T07:19:08.577Z,18.21
2022-08-01T07:21:40.571Z,18.10
2022-08-01T07:24:13.644Z,18.20
2022-08-01T07:26:52.292Z,18.14
2022-08-01T07:29:28.300Z,18.22
2022-08-01T07:31:59.271Z,18.22
2022-08-01T07:34:27.892Z,18.07
2022-08-01T07:36:56.990Z,18.19
2022-08-01T07:39:25.002Z,18.26
2022-08-01T07:42:07.218Z,18.21
2022-08-01T07:44:39.950Z,17.96
2022-08-01T07:47:08.173Z,17.82
2022-08-01T07:49:40.369Z,17.71
2022-08-01T07:52:10.838Z,17.59
2022-08-01T07:54:38.986Z,17.48
2022-08-01T07:57:08.730Z,17.37
2022-08-01T07:59:38.216Z,17.39
2022-08-01T08:02:06.445Z,17.40
2022-08-01T08:04:35.063Z,17.57
2022-08-01T08:07:04.707Z,17.60
2022-08-01T08:09:37.169Z,17.42
2022-08-01T08:12:07.423Z,17.25
2022-08-01T08:14:35.848Z,17.24
2022-08-01T08:17:05.303Z,17.11
2022-08-01T08:19:37.486Z,17.39
2022-08-01T08:22:11.234Z,17.35
2022-08-01T08:24:45.549Z,17.24
2022-08-01T08:27:14.671Z,17.27
2022-08-01T08:29:43.609Z,17.27
2022-08-01T08:32:13.095Z,17.27
2022-08-01T08:34:42.170Z,17.37
2022-08-01T08:37:11.482Z,17.45
2022-08-01T08:39:42.042Z,17.48
2022-08-01T08:42:15.017Z,17.21
2022-08-01T08:45:01.638Z,17.21
2022-08-01T08:47:35.057Z,17.03
2022-08-01T08:50:05.331Z,16.92
2022-08-01T08:52:39.910Z,16.98
2022-08-01T08:55:10.111Z,17.00
2022-08-01T08:57:42.404Z,17.06
2022-08-01T09:00:13.339Z,17.03
2022-08-01T09:02:47.679Z,16.89
2022-08-01T09:08:06.624Z,16.72
2022-08-01T09:10:36.800Z,16.79
2022-08-01T09:13:06.291Z,16.69
2022-08-01T09:15:46.322Z,16.61
2022-08-01T09:18:37.945Z,16.52
2022-08-01T09:21:25.995Z,16.36
2022-08-01T09:23:58.472Z,16.28
2022-08-01T09:26:37.041Z,16.33
2022-08-01T09:29:10.868Z,16.33
2022-08-01T09:31:47.464Z,16.35
2022-08-01T09:34:20.281Z,16.44
2022-08-01T09:37:05.703Z,16.47
2022-08-01T09:39:41.597Z,16.45
2022-08-01T09:42:28.331Z,16.31
2022-08-01T09:44:59.279Z,16.16
2022-08-01T09:47:42.644Z,15.93
2022-08-01T09:50:13.229Z,15.92
2022-08-01T09:52:41.921Z,15.75
2022-08-01T09:55:11.276Z,15.73
2022-08-01T09:57:41.352Z,15.69
2022-08-01T10:00:43.664Z,15.61
2022-08-01T10:03:26.390Z,15.65
2022-08-01T10:05:55.591Z,15.73
2022-08-01T10:08:25.242Z,15.74
2022-08-01T10:11:12.276Z,15.98
2022-08-01T10:13:41.678Z,16.11
2022-08-01T10:16:14.842Z,16.07
2022-08-01T10:18:46.799Z,15.89
2022-08-01T10:21:16.421Z,15.90
2022-08-01T10:24:07.513Z,15.71
2022-08-01T10:26:37.378Z,15.75
2022-08-01T10:29:58.979Z,15.72
2022-08-01T10:32:00.079Z,15.68
2022-08-01T10:34:30.967Z,15.80
2022-08-01T10:36:59.844Z,15.94
2022-08-01T10:39:32.755Z,16.03
2022-08-01T10:42:04.300Z,16.01
2022-08-01T10:44:36.391Z,16.10
2022-08-01T10:47:10.643Z,15.99
2022-08-01T10:49:50.193Z,15.97
2022-08-01T10:52:22.602Z,16.02
2022-08-01T10:55:05.692Z,16.05
2022-08-01T10:57:52.934Z,15.96
2022-08-01T11:00:25.372Z,15.78
2022-08-01T11:03:05.561Z,15.71
2022-08-01T11:05:40.222Z,15.54
2022-08-01T11:08:13.121Z,15.45
2022-08-01T11:10:46.580Z,15.48
2022-08-01T11:13:14.651Z,15.56
2022-08-01T11:15:50.034Z,15.58
2022-08-01T11:18:32.841Z,15.57
2022-08-01T11:21:57.496Z,15.66
2022-08-01T11:23:55.243Z,15.68
2022-08-01T11:26:29.045Z,15.78
2022-08-01T11:29:22.393Z,15.85
2022-08-01T11:31:53.338Z,15.89
2022-08-01T11:34:21.862Z,15.82
2022-08-01T11:36:59.552Z,15.65
2022-08-01T11:39:28.259Z,15.54
2022-08-01T11:42:23.265Z,15.55
2022-08-01T11:44:52.722Z,15.55
2022-08-01T11:47:40.775Z,15.62
2022-08-01T11:50:28.758Z,15.66
2022-08-01T11:53:26.868Z,15.64
2022-08-01T11:55:56.489Z,15.60
2022-08-01T11:58:30.635Z,15.64
2022-08-01T12:01:02.064Z,15.78
2022-08-01T12:03:34.614Z,15.86
2022-08-01T12:06:03.010Z,15.86
2022-08-01T12:08:37.350Z,15.93
2022-08-01T12:11:07.298Z,15.99
2022-08-01T12:13:47.569Z,15.94
2022-08-01T12:16:16.054Z,15.95
2022-08-01T12:18:45.161Z,15.86
2022-08-01T12:21:15.076Z,15.84
2022-08-01T12:23:42.759Z,15.83
2022-08-01T12:26:32.047Z,15.85
2022-08-01T12:29:02.601Z,15.82
2022-08-01T12:31:34.425Z,15.79
2022-08-01T12:34:41.759Z,15.76
2022-08-01T12:37:10.014Z,15.78
2022-08-01T12:39:40.475Z,15.81
2022-08-01T12:42:14.545Z,15.78
2022-08-01T12:44:46.253Z,15.85
2022-08-01T12:47:15.700Z,15.95
2022-08-01T12:50:01.023Z,15.89
2022-08-01T12:52:29.229Z,15.95
2022-08-01T12:55:21.647Z,15.93
2022-08-01T12:57:52.801Z,16.07
2022-08-01T13:00:25.497Z,16.09
2022-08-01T13:03:06.401Z,16.11
2022-08-01T13:05:44.541Z,16.12
2022-08-01T13:08:18.851Z,16.06
2022-08-01T13:10:48.729Z,16.10
2022-08-01T13:13:28.242Z,16.12
2022-08-01T13:16:12.158Z,16.13
2022-08-01T13:18:40.729Z,16.11
2022-08-01T13:21:20.041Z,16.02
2022-08-01T13:24:11.739Z,16.19
2022-08-01T13:26:49.810Z,16.18
2022-08-01T13:29:24.523Z,16.22
2022-08-01T13:31:52.613Z,16.09
2022-08-01T13:34:32.429Z,16.09
2022-08-01T13:37:00.615Z,15.92
2022-08-01T13:39:46.267Z,15.92
2022-08-01T13:42:19.173Z,15.81
2022-08-01T13:44:47.840Z,15.69
2022-08-01T13:47:18.225Z,15.77
2022-08-01T13:49:54.075Z,15.75
2022-08-01T13:52:22.100Z,15.74
2022-08-01T13:54:51.063Z,15.72
2022-08-01T13:57:19.114Z,15.78
2022-08-01T13:59:47.194Z,15.73
2022-08-01T14:02:15.445Z,15.85
2022-08-01T14:04:43.770Z,15.87
2022-08-01T14:07:15.030Z,15.84
2022-08-01T14:10:18.114Z,15.81
2022-08-01T14:12:33.483Z,15.70
2022-08-01T14:15:01.665Z,15.75
2022-08-01T14:17:32.239Z,15.67
2022-08-01T14:20:08.804Z,15.65
2022-08-01T14:22:36.997Z,15.72
2022-08-01T14:25:05.371Z,15.76
2022-08-01T14:27:39.216Z,15.76
2022-08-01T14:30:08.455Z,15.85
2022-08-01T14:32:37.076Z,15.87
2022-08-01T14:35:09.046Z,15.88
2022-08-01T14:37:38.655Z,15.87
2022-08-01T14:40:13.148Z,15.92
2022-08-01T14:42:41.685Z,15.92
2022-08-01T14:45:10.369Z,15.77
2022-08-01T14:47:42.411Z,15.81
2022-08-01T14:50:15.078Z,15.88
2022-08-01T14:52:44.420Z,15.87
2022-08-01T14:55:14.192Z,15.88
2022-08-01T14:58:01.778Z,15.82
2022-08-01T15:00:29.899Z,15.87
2022-08-01T15:02:58.704Z,15.89
2022-08-01T15:05:28.211Z,15.89
2022-08-01T15:07:56.504Z,15.72
2022-08-01T15:10:27.419Z,15.71
2022-08-01T15:12:56.449Z,15.63
2022-08-01T15:15:26.721Z,15.55
2022-08-01T15:17:55.008Z,15.59
2022-08-01T15:20:23.246Z,15.62
2022-08-01T15:22:51.388Z,15.66
2022-08-01T15:25:19.469Z,15.68
2022-08-01T15:27:51.101Z,15.70
2022-08-01T15:30:23.518Z,15.71
2022-08-01T15:32:57.120Z,15.69
2022-08-01T15:35:25.227Z,15.59
2022-08-01T15:37:53.241Z,15.50
2022-08-01T15:40:23.055Z,15.44
2022-08-01T15:42:51.226Z,15.21
2022-08-01T15:45:45.689Z,15.39
2022-08-01T15:48:09.928Z,15.36
2022-08-01T15:50:39.939Z,15.35
2022-08-01T15:53:08.083Z,15.36
2022-08-01T15:55:48.933Z,15.33
2022-08-01T15:58:21.123Z,15.31
2022-08-01T16:00:49.334Z,15.24
2022-08-01T16:03:17.467Z,15.34
2022-08-01T16:05:45.759Z,15.34
2022-08-01T16:08:16.114Z,15.38
2022-08-01T16:10:44.657Z,15.39
2022-08-01T16:13:14.299Z,15.46
2022-08-01T16:15:43.183Z,15.57
2022-08-01T16:18:16.619Z,15.59
2022-08-01T16:21:04.800Z,15.61
2022-08-01T16:23:32.912Z,15.62
2022-08-01T16:26:01.123Z,15.61
2022-08-01T16:28:30.161Z,15.45
2022-08-01T16:31:15.512Z,15.54
2022-08-01T16:33:55.226Z,15.57
2022-08-01T16:36:25.292Z,15.58
2022-08-01T16:38:53.715Z,15.54
2022-08-01T16:41:25.028Z,15.57
2022-08-01T16:43:54.583Z,15.57
2022-08-01T16:46:28.002Z,15.48
2022-08-01T16:48:56.408Z,15.49
2022-08-01T16:51:25.315Z,15.54
2022-08-01T16:53:53.634Z,15.51
2022-08-01T16:56:22.073Z,15.55
2022-08-01T16:58:50.519Z,15.53
2022-08-01T17:02:01.471Z,15.52
2022-08-01T17:04:10.762Z,15.43
2022-08-01T17:06:40.184Z,15.45
2022-08-01T17:09:09.964Z,15.31
2022-08-01T17:11:38.419Z,15.38
2022-08-01T17:14:06.604Z,15.30
2022-08-01T17:16:34.775Z,15.32
2022-08-01T17:19:02.920Z,15.23
2022-08-01T17:21:31.399Z,15.35
2022-08-01T17:23:59.513Z,15.34
2022-08-01T17:26:27.550Z,15.29
2022-08-01T17:28:59.447Z,15.26
2022-08-01T17:31:27.360Z,15.30
2022-08-01T17:33:55.501Z,15.22
2022-08-01T17:36:25.180Z,15.14
2022-08-01T17:38:53.203Z,15.00
2022-08-01T17:41:21.333Z,14.93
2022-08-01T17:43:50.316Z,14.90
2022-08-01T17:46:18.632Z,15.00
2022-08-01T17:48:47.262Z,14.76
2022-08-01T17:51:19.328Z,14.92
2022-08-01T17:53:53.197Z,14.99
2022-08-01T17:56:28.971Z,14.94
2022-08-01T17:58:57.261Z,14.82
2022-08-01T18:01:26.549Z,14.86
2022-08-01T18:03:57.591Z,14.79
2022-08-01T18:06:27.012Z,14.85
2022-08-01T18:08:56.753Z,14.69
2022-08-01T18:11:28.102Z,14.68
2022-08-01T18:13:59.940Z,14.61
2022-08-01T18:16:28.542Z,14.66
2022-08-01T18:18:57.755Z,14.59
2022-08-01T18:21:25.884Z,14.59
2022-08-01T18:23:53.958Z,14.44
2022-08-01T18:26:23.733Z,14.42
2022-08-01T18:28:51.712Z,14.36
2022-08-01T18:31:21.153Z,14.28
2022-08-01T18:33:50.659Z,14.17
2022-08-01T18:36:32.698Z,14.17
2022-08-01T18:39:10.522Z,14.14
2022-08-01T18:41:40.411Z,14.11
2022-08-01T18:44:09.218Z,14.09
2022-08-01T18:46:39.646Z,13.96
2022-08-01T18:49:11.135Z,14.01
2022-08-01T18:51:44.737Z,13.98
2022-08-01T18:54:14.817Z,13.86
2022-08-01T18:56:44.822Z,13.88
2022-08-01T18:59:12.569Z,13.89
2022-08-01T19:01:41.057Z,13.84
2022-08-01T19:04:09.514Z,13.75
2022-08-01T19:06:40.389Z,13.75
2022-08-01T19:09:09.253Z,13.62
2022-08-01T19:11:37.646Z,13.69
2022-08-01T19:14:06.325Z,13.62
2022-08-01T19:16:54.314Z,13.53
2022-08-01T19:19:27.650Z,13.37
2022-08-01T19:21:58.183Z,13.29
2022-08-01T19:25:06.431Z,13.15
2022-08-01T19:27:39.391Z,13.09
2022-08-01T19:30:08.803Z,13.09
2022-08-01T19:32:38.283Z,13.08
2022-08-01T19:35:15.310Z,13.07
2022-08-01T19:37:47.792Z,13.05
2022-08-01T19:40:26.250Z,12.95
2022-08-01T19:42:58.011Z,12.88
2022-08-01T19:45:30.325Z,12.95
2022-08-01T19:47:59.896Z,12.92
2022-08-01T19:50:28.857Z,12.83
2022-08-01T19:53:00.275Z,12.76
2022-08-01T19:55:29.331Z,12.69
2022-08-01T19:58:25.866Z,12.71
2022-08-01T20:00:53.155Z,12.70
2022-08-01T20:03:24.283Z,12.46
2022-08-01T20:05:52.435Z,12.67
2022-08-01T20:08:23.033Z,12.64
2022-08-01T20:10:51.801Z,12.56
2022-08-01T20:13:20.520Z,12.61
2022-08-01T20:15:49.887Z,12.61
2022-08-01T20:18:18.277Z,12.58
2022-08-01T20:20:47.905Z,12.46
2022-08-01T20:23:19.249Z,12.49
2022-08-01T20:25:50.121Z,12.42
2022-08-01T20:28:25.227Z,12.37
2022-08-01T20:30:58.448Z,12.44
2022-08-01T20:33:30.097Z,12.41
2022-08-01T20:35:58.159Z,12.41
2022-08-01T20:38:30.528Z,12.29
2022-08-01T20:40:59.394Z,12.40
2022-08-01T20:43:28.253Z,12.35
2022-08-01T20:45:58.622Z,12.37
2022-08-01T20:48:28.399Z,12.40
2022-08-01T20:51:19.172Z,12.33
2022-08-01T20:53:55.635Z,12.40
2022-08-01T20:56:23.623Z,12.42
2022-08-01T20:59:00.577Z,12.40
2022-08-01T21:01:40.717Z,12.43
2022-08-01T21:04:45.429Z,12.45
2022-08-01T21:07:23.132Z,12.45
2022-08-01T21:10:09.708Z,12.45
2022-08-01T21:13:01.037Z,12.38
2022-08-01T21:15:35.178Z,12.40
2022-08-01T21:18:03.248Z,12.42
2022-08-01T21:20:34.159Z,12.37
2022-08-01T21:23:30.169Z,12.42
2022-08-01T21:25:59.951Z,12.25
2022-08-01T21:28:29.129Z,12.47
2022-08-01T21:30:59.222Z,12.49
2022-08-01T21:33:29.813Z,12.50
2022-08-01T21:36:05.792Z,12.50
2022-08-01T21:38:38.050Z,12.50
2022-08-01T21:41:10.311Z,12.47
2022-08-01T21:43:39.133Z,12.42
2022-08-01T21:46:08.866Z,12.44
2022-08-01T21:48:38.921Z,12.44
2022-08-01T21:51:23.087Z,12.41
2022-08-01T21:54:25.457Z,12.40
2022-08-01T21:57:32.655Z,12.32
2022-08-01T22:00:10.772Z,12.33
2022-08-01T22:03:02.113Z,12.21
2022-08-01T22:05:50.601Z,12.19
2022-08-01T22:08:35.783Z,12.27
2022-08-01T22:11:10.940Z,12.27
2022-08-01T22:13:39.374Z,12.19
2022-08-01T22:16:08.316Z,12.22
2022-08-01T22:18:37.321Z,12.25
2022-08-01T22:21:05.700Z,12.24
2022-08-01T22:23:37.846Z,12.20
2022-08-01T22:26:13.192Z,12.21
2022-08-01T22:28:41.582Z,12.14
2022-08-01T22:31:09.730Z,12.18
2022-08-01T22:33:40.397Z,11.93
2022-08-01T22:36:08.682Z,12.14
2022-08-01T22:38:36.711Z,12.11
2022-08-01T22:41:08.664Z,12.16
2022-08-01T22:43:48.016Z,12.14
2022-08-01T22:46:42.042Z,12.11
2022-08-01T22:49:48.227Z,12.09
2022-08-01T22:52:31.905Z,12.07
2022-08-01T22:55:11.260Z,11.94
2022-08-01T22:57:39.458Z,12.08
2022-08-01T23:00:10.534Z,12.12
2022-08-01T23:02:46.231Z,12.16
2022-08-01T23:05:22.254Z,12.23
2022-08-01T23:07:56.411Z,12.29
2022-08-01T23:10:28.071Z,12.40
2022-08-01T23:12:56.974Z,12.49
2022-08-01T23:15:25.748Z,12.55
2022-08-01T23:17:56.148Z,12.67
2022-08-01T23:20:25.933Z,12.74
2022-08-01T23:22:59.077Z,12.81
2022-08-01T23:25:29.195Z,12.90
2022-08-01T23:28:05.604Z,13.00
2022-08-01T23:30:37.835Z,13.12
2022-08-01T23:33:05.818Z,13.21
2022-08-01T23:35:39.081Z,13.36
2022-08-01T23:38:07.850Z,13.51
2022-08-01T23:40:36.297Z,13.66
2022-08-01T23:43:24.462Z,13.79
2022-08-01T23:46:03.918Z,13.91
2022-08-01T23:48:37.798Z,14.07
2022-08-01T23:51:09.406Z,14.14
2022-08-01T23:53:39.588Z,14.34
2022-08-01T23:56:07.689Z,14.48
2022-08-01T23:58:35.727Z,14.61
